Belevren, Bulgaria

11:35 AM EET on February 25, 2018 (GMT +0200)
Zvezdets | | Change Station

Elev 1178 ft 42.11 °N, 27.42 °E | Updated 12 seconds ago

Overcast
Overcast
26.6 °F
Feels Like 27 °F
N
2.3
Wind Variable Wind from WSW
Gusts 2.3 mph

Today
High -- | Low -- °F
--% Chance of Precip.
Yesterday
High -- | Low -- °F
Precip. -- in
Pressure 30.04 in
Visibility 6.2 miles
Clouds Mostly Cloudy 2300 ft
Overcast 3600 ft
Windchill 27 °F
Dew Point 25 °F
Humidity 92%
Rainfall 0.03 in
Snow Depth Not available.
6:53 AM 5:56 PM
Waxing Gibbous, 73% visible
METAR LBBG 250930Z 36010KT 9999 BKN023 OVC036 M00/M05 Q1017 NOSIG
Pressure 30.04 in
Visibility 6.2 miles
Clouds Mostly Cloudy 2300 ft
Overcast 3600 ft
Windchill 27 °F
Dew Point 25 °F
Humidity 92%
Rainfall 0.03 in
Snow Depth Not available.
6:53 AM 5:56 PM
Waxing Gibbous, 73% visible
METAR LBBG 250930Z 36010KT 9999 BKN023 OVC036 M00/M05 Q1017 NOSIG

Get Severe Weather Alerts

Thanks for signing up!

Be on the lookout for a verification email in your inbox.

You'll start receiving the daily forecast at 6 AM.

×

10-Day Weather Forecast

Heavy Snow conditions possible.
×

Almanac

Astronomy

Feb. 25, 2018 Rise Set
Actual Time
Civil Twilight
Nautical Twilight
Astronomical Twilight
Moon
Length of Visible Light
Length of Day
Tomorrow will be .
, % of the Moon is Illuminated

Today's Extremes

Country Highs Country Lows

Community

WunderPhotos

Category 6

Welcome to Category 6. This is the collective home for Weather Underground's featured writeups by Dr. Jeff Masters (right), Bob Henson (left), Chris Burt, and other regular contributors.

Nearby

Air Quality

  Air Quality AQ Index Pollutant
Not available.

Snow Depth

Station Depth Elevation

Earthquake Activity

City Distance Mag. Time & Date
Minimum magnitude displayed is 2.5.

Coastal Water Temperatures

Place Temperature

Stations

Nearby Weather Stations

Station Location Temp. Windchill Dew Point Humidity Wind Precip. Elev Updated Type